Información del aeropuerto LECH

Información de pista
Frecuencias del aeropuerto
Radioayudas del aeropuerto
Información meteorológica del aeropuerto y NOTAM
ADDS - METARS form results

(0025 UTC 20 September 2020)
Data provider http://aviationweather.gov/metar/data/
 
METAR text: LECH 200000Z AUTO 18004KT 160V280 CAVOK 20/11 Q1016
Conditions at: LECH (CASTELLON , ES) observed 0000 UTC 20 September 2020
Temperature: 20.0°C (68°F)
Dewpoint: 11.0°C (52°F) [RH = 56%]
Pressure (altimeter): 30.00 inches Hg (1016.0 mb)
Winds: from the S (180 degrees) at 5 MPH (4 knots; 2.1 m/s)
Visibility: 6 or more miles (10+ km)
Ceiling: ceiling and visibility are OK
Clouds: unknown
Weather: no significant weather observed at this time

METAR text: LECH 192330Z AUTO VRB02KT CAVOK 20/11 Q1016
Conditions at: LECH (CASTELLON , ES) observed 2330 UTC 19 September 2020
Temperature: 20.0°C (68°F)
Dewpoint: 11.0°C (52°F) [RH = 56%]
Pressure (altimeter): 30.00 inches Hg (1016.0 mb)
Winds: variable direction winds at 2 MPH (2 knots; 1.0 m/s)
Visibility: 6 or more miles (10+ km)
Ceiling: ceiling and visibility are OK
Clouds: unknown
Weather: no significant weather observed at this time